sensor_id;sensor_type;location;lat;lon;timestamp;temperature;humidity
26342;DHT22;14054;50.108;8.640;2022-12-08T00:00:52;3.40;99.90
26342;DHT22;14054;50.108;8.640;2022-12-08T00:03:17;3.50;99.90
26342;DHT22;14054;50.108;8.640;2022-12-08T00:05:45;3.50;99.90
26342;DHT22;14054;50.108;8.640;2022-12-08T00:08:29;3.50;99.90
26342;DHT22;14054;50.108;8.640;2022-12-08T00:11:13;3.50;99.90
26342;DHT22;14054;50.108;8.640;2022-12-08T00:13:39;3.50;99.90
26342;DHT22;14054;50.108;8.640;2022-12-08T00:16:05;3.50;99.90
26342;DHT22;14054;50.108;8.640;2022-12-08T00:18:30;3.50;99.90
26342;DHT22;14054;50.108;8.640;2022-12-08T00:20:56;3.60;99.90
26342;DHT22;14054;50.108;8.640;2022-12-08T00:23:22;3.60;99.90
26342;DHT22;14054;50.108;8.640;2022-12-08T00:25:48;3.60;99.90
26342;DHT22;14054;50.108;8.640;2022-12-08T00:28:13;3.60;99.90
26342;DHT22;14054;50.108;8.640;2022-12-08T00:30:40;3.60;99.90
26342;DHT22;14054;50.108;8.640;2022-12-08T00:33:05;3.60;99.90
26342;DHT22;14054;50.108;8.640;2022-12-08T00:35:31;3.60;99.90
26342;DHT22;14054;50.108;8.640;2022-12-08T00:37:56;3.70;99.90
26342;DHT22;14054;50.108;8.640;2022-12-08T00:40:21;3.60;99.90
26342;DHT22;14054;50.108;8.640;2022-12-08T00:42:47;3.70;99.90
26342;DHT22;14054;50.108;8.640;2022-12-08T00:45:12;3.60;99.90
26342;DHT22;14054;50.108;8.640;2022-12-08T00:47:38;3.70;99.90
26342;DHT22;14054;50.108;8.640;2022-12-08T00:50:04;3.70;99.90
26342;DHT22;14054;50.108;8.640;2022-12-08T00:52:29;3.70;99.90
26342;DHT22;14054;50.108;8.640;2022-12-08T00:54:55;3.70;99.90
26342;DHT22;14054;50.108;8.640;2022-12-08T00:57:20;3.60;99.90
26342;DHT22;14054;50.108;8.640;2022-12-08T00:59:46;3.70;99.90
26342;DHT22;14054;50.108;8.640;2022-12-08T01:02:11;3.70;99.90
26342;DHT22;14054;50.108;8.640;2022-12-08T01:04:37;3.70;99.90
26342;DHT22;14054;50.108;8.640;2022-12-08T01:07:02;3.70;99.90
26342;DHT22;14054;50.108;8.640;2022-12-08T01:09:28;3.60;99.90
26342;DHT22;14054;50.108;8.640;2022-12-08T01:11:53;3.70;99.90
26342;DHT22;14054;50.108;8.640;2022-12-08T01:14:19;3.70;99.90
26342;DHT22;14054;50.108;8.640;2022-12-08T01:16:45;3.70;99.90
26342;DHT22;14054;50.108;8.640;2022-12-08T01:19:13;3.70;99.90
26342;DHT22;14054;50.108;8.640;2022-12-08T01:21:39;3.70;99.90
26342;DHT22;14054;50.108;8.640;2022-12-08T01:24:05;3.70;99.90
26342;DHT22;14054;50.108;8.640;2022-12-08T01:26:31;3.80;99.90
26342;DHT22;14054;50.108;8.640;2022-12-08T01:28:56;3.70;99.90
26342;DHT22;14054;50.108;8.640;2022-12-08T01:31:22;3.80;99.90
26342;DHT22;14054;50.108;8.640;2022-12-08T01:33:49;3.80;99.90
26342;DHT22;14054;50.108;8.640;2022-12-08T01:36:23;3.80;99.90
26342;DHT22;14054;50.108;8.640;2022-12-08T01:38:49;3.80;99.90
26342;DHT22;14054;50.108;8.640;2022-12-08T01:41:17;3.80;99.90
26342;DHT22;14054;50.108;8.640;2022-12-08T01:46:21;3.80;99.90
26342;DHT22;14054;50.108;8.640;2022-12-08T01:48:48;3.80;99.90
26342;DHT22;14054;50.108;8.640;2022-12-08T01:51:14;3.80;99.90
26342;DHT22;14054;50.108;8.640;2022-12-08T01:53:39;3.80;99.90
26342;DHT22;14054;50.108;8.640;2022-12-08T01:56:11;3.80;99.90
26342;DHT22;14054;50.108;8.640;2022-12-08T01:58:46;3.80;99.90
26342;DHT22;14054;50.108;8.640;2022-12-08T02:01:12;3.80;99.90
26342;DHT22;14054;50.108;8.640;2022-12-08T02:04:00;3.90;99.90
26342;DHT22;14054;50.108;8.640;2022-12-08T02:06:27;3.90;99.90
26342;DHT22;14054;50.108;8.640;2022-12-08T02:08:55;3.90;99.90
26342;DHT22;14054;50.108;8.640;2022-12-08T02:11:21;3.90;99.90
26342;DHT22;14054;50.108;8.640;2022-12-08T02:13:47;3.90;99.90
26342;DHT22;14054;50.108;8.640;2022-12-08T02:16:37;3.90;99.90
26342;DHT22;14054;50.108;8.640;2022-12-08T02:19:17;3.90;99.90
26342;DHT22;14054;50.108;8.640;2022-12-08T02:21:50;3.90;99.90
26342;DHT22;14054;50.108;8.640;2022-12-08T02:24:22;3.80;99.90
26342;DHT22;14054;50.108;8.640;2022-12-08T02:27:10;3.80;99.90
26342;DHT22;14054;50.108;8.640;2022-12-08T02:29:53;3.80;99.90
26342;DHT22;14054;50.108;8.640;2022-12-08T02:35:28;3.90;99.90
26342;DHT22;14054;50.108;8.640;2022-12-08T02:38:28;3.80;99.90
26342;DHT22;14054;50.108;8.640;2022-12-08T02:41:05;3.80;99.90
26342;DHT22;14054;50.108;8.640;2022-12-08T02:43:38;3.70;99.90
26342;DHT22;14054;50.108;8.640;2022-12-08T02:46:10;3.70;99.90
26342;DHT22;14054;50.108;8.640;2022-12-08T02:48:36;3.70;99.90
26342;DHT22;14054;50.108;8.640;2022-12-08T02:51:02;3.70;99.90
26342;DHT22;14054;50.108;8.640;2022-12-08T02:53:29;3.70;99.90
26342;DHT22;14054;50.108;8.640;2022-12-08T02:56:29;3.70;99.90
26342;DHT22;14054;50.108;8.640;2022-12-08T03:02:00;3.70;99.90
26342;DHT22;14054;50.108;8.640;2022-12-08T03:09:49;3.70;99.90
26342;DHT22;14054;50.108;8.640;2022-12-08T03:12:25;3.70;99.90
26342;DHT22;14054;50.108;8.640;2022-12-08T03:14:55;3.70;99.90
26342;DHT22;14054;50.108;8.640;2022-12-08T03:17:25;3.70;99.90
26342;DHT22;14054;50.108;8.640;2022-12-08T03:19:52;3.70;99.90
26342;DHT22;14054;50.108;8.640;2022-12-08T03:22:21;3.70;99.90
26342;DHT22;14054;50.108;8.640;2022-12-08T03:24:49;3.70;99.90
26342;DHT22;14054;50.108;8.640;2022-12-08T03:27:17;3.70;99.90
26342;DHT22;14054;50.108;8.640;2022-12-08T03:29:48;3.70;99.90
26342;DHT22;14054;50.108;8.640;2022-12-08T03:35:06;3.70;99.90
26342;DHT22;14054;50.108;8.640;2022-12-08T03:37:35;3.70;99.90
26342;DHT22;14054;50.108;8.640;2022-12-08T03:40:02;3.70;99.90
26342;DHT22;14054;50.108;8.640;2022-12-08T03:42:27;3.70;99.90
26342;DHT22;14054;50.108;8.640;2022-12-08T03:44:53;3.70;99.90
26342;DHT22;14054;50.108;8.640;2022-12-08T03:47:18;3.70;99.90
26342;DHT22;14054;50.108;8.640;2022-12-08T03:49:44;3.70;99.90
26342;DHT22;14054;50.108;8.640;2022-12-08T03:52:09;3.70;99.90
26342;DHT22;14054;50.108;8.640;2022-12-08T03:54:35;3.70;99.90
26342;DHT22;14054;50.108;8.640;2022-12-08T03:57:00;3.70;99.90
26342;DHT22;14054;50.108;8.640;2022-12-08T03:59:26;3.70;99.90
26342;DHT22;14054;50.108;8.640;2022-12-08T04:01:51;3.70;99.90
26342;DHT22;14054;50.108;8.640;2022-12-08T04:04:17;3.70;99.90
26342;DHT22;14054;50.108;8.640;2022-12-08T04:06:43;3.70;99.90
26342;DHT22;14054;50.108;8.640;2022-12-08T04:09:08;3.70;99.90
26342;DHT22;14054;50.108;8.640;2022-12-08T04:11:34;3.80;99.90
26342;DHT22;14054;50.108;8.640;2022-12-08T04:13:59;3.80;99.90
26342;DHT22;14054;50.108;8.640;2022-12-08T04:16:25;3.70;99.90
26342;DHT22;14054;50.108;8.640;2022-12-08T04:18:52;3.70;99.90
26342;DHT22;14054;50.108;8.640;2022-12-08T04:21:18;3.70;99.90
26342;DHT22;14054;50.108;8.640;2022-12-08T04:23:43;3.70;99.90
26342;DHT22;14054;50.108;8.640;2022-12-08T04:26:09;3.80;99.90
26342;DHT22;14054;50.108;8.640;2022-12-08T04:28:35;3.70;99.90
26342;DHT22;14054;50.108;8.640;2022-12-08T04:31:01;3.70;99.90
26342;DHT22;14054;50.108;8.640;2022-12-08T04:33:26;3.70;99.90
26342;DHT22;14054;50.108;8.640;2022-12-08T04:35:52;3.70;99.90
26342;DHT22;14054;50.108;8.640;2022-12-08T04:38:17;3.70;99.90
26342;DHT22;14054;50.108;8.640;2022-12-08T04:40:43;3.80;99.90
26342;DHT22;14054;50.108;8.640;2022-12-08T04:43:09;3.80;99.90
26342;DHT22;14054;50.108;8.640;2022-12-08T04:45:34;3.70;99.90
26342;DHT22;14054;50.108;8.640;2022-12-08T04:48:03;3.80;99.90
26342;DHT22;14054;50.108;8.640;2022-12-08T04:50:28;3.80;99.90
26342;DHT22;14054;50.108;8.640;2022-12-08T04:52:53;3.80;99.90
26342;DHT22;14054;50.108;8.640;2022-12-08T04:55:19;3.80;99.90
26342;DHT22;14054;50.108;8.640;2022-12-08T04:57:45;3.80;99.90
26342;DHT22;14054;50.108;8.640;2022-12-08T05:00:11;3.70;99.90
26342;DHT22;14054;50.108;8.640;2022-12-08T05:02:38;3.80;99.90
26342;DHT22;14054;50.108;8.640;2022-12-08T05:05:04;3.80;99.90
26342;DHT22;14054;50.108;8.640;2022-12-08T05:07:29;3.80;99.90
26342;DHT22;14054;50.108;8.640;2022-12-08T05:09:55;3.80;99.90
26342;DHT22;14054;50.108;8.640;2022-12-08T05:12:20;3.80;99.90
26342;DHT22;14054;50.108;8.640;2022-12-08T05:14:46;3.80;99.90
26342;DHT22;14054;50.108;8.640;2022-12-08T05:17:13;3.80;99.90
26342;DHT22;14054;50.108;8.640;2022-12-08T05:19:39;3.70;99.90
26342;DHT22;14054;50.108;8.640;2022-12-08T05:22:04;3.70;99.90
26342;DHT22;14054;50.108;8.640;2022-12-08T05:24:30;3.70;99.90
26342;DHT22;14054;50.108;8.640;2022-12-08T05:26:55;3.70;99.90
26342;DHT22;14054;50.108;8.640;2022-12-08T05:29:20;3.70;99.90
26342;DHT22;14054;50.108;8.640;2022-12-08T05:31:46;3.80;99.90
26342;DHT22;14054;50.108;8.640;2022-12-08T05:34:11;3.70;99.90
26342;DHT22;14054;50.108;8.640;2022-12-08T05:36:37;3.80;99.90
26342;DHT22;14054;50.108;8.640;2022-12-08T05:39:02;3.70;99.90
26342;DHT22;14054;50.108;8.640;2022-12-08T05:41:28;3.80;99.90
26342;DHT22;14054;50.108;8.640;2022-12-08T05:43:53;3.80;99.90
26342;DHT22;14054;50.108;8.640;2022-12-08T05:46:19;3.80;99.90
26342;DHT22;14054;50.108;8.640;2022-12-08T05:48:44;3.80;99.90
26342;DHT22;14054;50.108;8.640;2022-12-08T05:51:19;3.80;99.90
26342;DHT22;14054;50.108;8.640;2022-12-08T05:53:46;3.80;99.90
26342;DHT22;14054;50.108;8.640;2022-12-08T05:56:12;3.80;99.90
26342;DHT22;14054;50.108;8.640;2022-12-08T05:58:37;3.80;99.90
26342;DHT22;14054;50.108;8.640;2022-12-08T06:01:03;3.80;99.90
26342;DHT22;14054;50.108;8.640;2022-12-08T06:03:28;3.80;99.90
26342;DHT22;14054;50.108;8.640;2022-12-08T06:05:54;3.80;99.90
26342;DHT22;14054;50.108;8.640;2022-12-08T06:08:19;3.80;99.90
26342;DHT22;14054;50.108;8.640;2022-12-08T06:10:45;3.80;99.90
26342;DHT22;14054;50.108;8.640;2022-12-08T06:13:12;3.80;99.90
26342;DHT22;14054;50.108;8.640;2022-12-08T06:15:38;3.80;99.90
26342;DHT22;14054;50.108;8.640;2022-12-08T06:18:04;3.80;99.90
26342;DHT22;14054;50.108;8.640;2022-12-08T06:20:30;3.80;99.90
26342;DHT22;14054;50.108;8.640;2022-12-08T06:22:55;3.80;99.90
26342;DHT22;14054;50.108;8.640;2022-12-08T06:25:21;3.80;99.90
26342;DHT22;14054;50.108;8.640;2022-12-08T06:27:47;3.80;99.90
26342;DHT22;14054;50.108;8.640;2022-12-08T06:30:13;3.80;99.90
26342;DHT22;14054;50.108;8.640;2022-12-08T06:32:38;3.80;99.90
26342;DHT22;14054;50.108;8.640;2022-12-08T06:35:04;3.80;99.90
26342;DHT22;14054;50.108;8.640;2022-12-08T06:37:30;3.80;99.90
26342;DHT22;14054;50.108;8.640;2022-12-08T06:39:55;3.70;99.90
26342;DHT22;14054;50.108;8.640;2022-12-08T06:42:21;3.70;99.90
26342;DHT22;14054;50.108;8.640;2022-12-08T06:45:05;3.80;99.90
26342;DHT22;14054;50.108;8.640;2022-12-08T06:47:31;3.80;99.90
26342;DHT22;14054;50.108;8.640;2022-12-08T06:49:56;3.70;99.90
26342;DHT22;14054;50.108;8.640;2022-12-08T06:52:22;3.70;99.90
26342;DHT22;14054;50.108;8.640;2022-12-08T06:54:48;3.70;99.90
26342;DHT22;14054;50.108;8.640;2022-12-08T06:57:13;3.60;99.90
26342;DHT22;14054;50.108;8.640;2022-12-08T06:59:39;3.60;99.90
26342;DHT22;14054;50.108;8.640;2022-12-08T07:02:04;3.70;99.90
26342;DHT22;14054;50.108;8.640;2022-12-08T07:04:30;3.70;99.90
26342;DHT22;14054;50.108;8.640;2022-12-08T07:06:55;3.70;99.90
26342;DHT22;14054;50.108;8.640;2022-12-08T07:09:21;3.60;99.90
26342;DHT22;14054;50.108;8.640;2022-12-08T07:11:46;3.60;99.90
26342;DHT22;14054;50.108;8.640;2022-12-08T07:14:13;3.50;99.90
26342;DHT22;14054;50.108;8.640;2022-12-08T07:16:39;3.50;99.90
26342;DHT22;14054;50.108;8.640;2022-12-08T07:19:05;3.60;99.90
26342;DHT22;14054;50.108;8.640;2022-12-08T07:21:30;3.50;99.90
26342;DHT22;14054;50.108;8.640;2022-12-08T07:23:56;3.40;99.90
26342;DHT22;14054;50.108;8.640;2022-12-08T07:26:21;3.40;99.90
26342;DHT22;14054;50.108;8.640;2022-12-08T07:28:47;3.40;99.90
26342;DHT22;14054;50.108;8.640;2022-12-08T07:31:18;3.40;99.90
26342;DHT22;14054;50.108;8.640;2022-12-08T07:33:44;3.30;99.90
26342;DHT22;14054;50.108;8.640;2022-12-08T07:36:09;3.30;99.90
26342;DHT22;14054;50.108;8.640;2022-12-08T07:38:35;3.40;99.90
26342;DHT22;14054;50.108;8.640;2022-12-08T07:41:00;3.40;99.90
26342;DHT22;14054;50.108;8.640;2022-12-08T07:43:26;3.30;99.90
26342;DHT22;14054;50.108;8.640;2022-12-08T07:45:52;3.30;99.90
26342;DHT22;14054;50.108;8.640;2022-12-08T07:48:18;3.30;99.90
26342;DHT22;14054;50.108;8.640;2022-12-08T07:50:45;3.30;99.90
26342;DHT22;14054;50.108;8.640;2022-12-08T07:53:11;3.30;99.90
26342;DHT22;14054;50.108;8.640;2022-12-08T07:55:43;3.30;99.90
26342;DHT22;14054;50.108;8.640;2022-12-08T07:58:09;3.20;99.90
26342;DHT22;14054;50.108;8.640;2022-12-08T08:00:34;3.20;99.90
26342;DHT22;14054;50.108;8.640;2022-12-08T08:03:00;3.30;99.90
26342;DHT22;14054;50.108;8.640;2022-12-08T08:05:26;3.30;99.90
26342;DHT22;14054;50.108;8.640;2022-12-08T08:07:52;3.30;99.90
26342;DHT22;14054;50.108;8.640;2022-12-08T08:10:17;3.30;99.90
26342;DHT22;14054;50.108;8.640;2022-12-08T08:12:43;3.30;99.90
26342;DHT22;14054;50.108;8.640;2022-12-08T08:15:09;3.30;99.90
26342;DHT22;14054;50.108;8.640;2022-12-08T08:17:36;3.30;99.90
26342;DHT22;14054;50.108;8.640;2022-12-08T08:20:06;3.40;99.90
26342;DHT22;14054;50.108;8.640;2022-12-08T08:22:32;3.40;99.90
26342;DHT22;14054;50.108;8.640;2022-12-08T08:24:57;3.40;99.90
26342;DHT22;14054;50.108;8.640;2022-12-08T08:27:23;3.40;99.90
26342;DHT22;14054;50.108;8.640;2022-12-08T08:29:49;3.50;99.90
26342;DHT22;14054;50.108;8.640;2022-12-08T08:32:15;3.40;99.90
26342;DHT22;14054;50.108;8.640;2022-12-08T08:34:41;3.50;99.90
26342;DHT22;14054;50.108;8.640;2022-12-08T08:37:06;3.50;99.90
26342;DHT22;14054;50.108;8.640;2022-12-08T08:39:31;3.50;99.90
26342;DHT22;14054;50.108;8.640;2022-12-08T08:41:57;3.60;99.90
26342;DHT22;14054;50.108;8.640;2022-12-08T08:44:23;3.70;99.90
26342;DHT22;14054;50.108;8.640;2022-12-08T08:46:48;3.80;99.90
26342;DHT22;14054;50.108;8.640;2022-12-08T08:49:14;3.70;99.90
26342;DHT22;14054;50.108;8.640;2022-12-08T08:51:39;3.80;99.90
26342;DHT22;14054;50.108;8.640;2022-12-08T08:54:05;3.80;99.90
26342;DHT22;14054;50.108;8.640;2022-12-08T08:56:30;3.70;99.90
26342;DHT22;14054;50.108;8.640;2022-12-08T08:58:56;3.70;99.90
26342;DHT22;14054;50.108;8.640;2022-12-08T09:01:24;3.70;99.90
26342;DHT22;14054;50.108;8.640;2022-12-08T09:03:50;3.70;99.90
26342;DHT22;14054;50.108;8.640;2022-12-08T09:06:16;3.80;99.90
26342;DHT22;14054;50.108;8.640;2022-12-08T09:08:42;3.90;99.90
26342;DHT22;14054;50.108;8.640;2022-12-08T09:11:08;3.90;99.90
26342;DHT22;14054;50.108;8.640;2022-12-08T09:13:34;3.90;99.90
26342;DHT22;14054;50.108;8.640;2022-12-08T09:16:01;3.90;99.90
26342;DHT22;14054;50.108;8.640;2022-12-08T09:18:27;4.00;99.90
26342;DHT22;14054;50.108;8.640;2022-12-08T09:20:53;4.00;99.90
26342;DHT22;14054;50.108;8.640;2022-12-08T09:23:18;4.10;99.90
26342;DHT22;14054;50.108;8.640;2022-12-08T09:25:44;4.10;99.90
26342;DHT22;14054;50.108;8.640;2022-12-08T09:28:11;4.10;99.90
26342;DHT22;14054;50.108;8.640;2022-12-08T09:30:37;4.10;99.90
26342;DHT22;14054;50.108;8.640;2022-12-08T09:33:02;4.10;99.90
26342;DHT22;14054;50.108;8.640;2022-12-08T09:35:28;4.10;99.90
26342;DHT22;14054;50.108;8.640;2022-12-08T09:37:53;4.20;99.90
26342;DHT22;14054;50.108;8.640;2022-12-08T09:40:20;4.20;99.90
26342;DHT22;14054;50.108;8.640;2022-12-08T09:42:51;4.00;99.90
26342;DHT22;14054;50.108;8.640;2022-12-08T09:45:19;4.10;99.90
26342;DHT22;14054;50.108;8.640;2022-12-08T09:48:05;4.30;99.90
26342;DHT22;14054;50.108;8.640;2022-12-08T09:50:51;4.50;99.90
26342;DHT22;14054;50.108;8.640;2022-12-08T09:55:51;4.70;99.90
26342;DHT22;14054;50.108;8.640;2022-12-08T09:58:31;4.50;99.90
26342;DHT22;14054;50.108;8.640;2022-12-08T10:00:59;4.60;99.90
26342;DHT22;14054;50.108;8.640;2022-12-08T10:03:27;4.80;99.90
26342;DHT22;14054;50.108;8.640;2022-12-08T10:11:43;5.00;99.90
26342;DHT22;14054;50.108;8.640;2022-12-08T10:16:48;4.90;99.90
26342;DHT22;14054;50.108;8.640;2022-12-08T10:19:22;4.90;99.90
26342;DHT22;14054;50.108;8.640;2022-12-08T10:21:48;4.80;99.90
26342;DHT22;14054;50.108;8.640;2022-12-08T10:24:40;4.70;99.90
26342;DHT22;14054;50.108;8.640;2022-12-08T10:27:11;4.70;99.90
26342;DHT22;14054;50.108;8.640;2022-12-08T10:29:38;4.80;99.90
26342;DHT22;14054;50.108;8.640;2022-12-08T10:32:15;4.70;99.90
26342;DHT22;14054;50.108;8.640;2022-12-08T10:34:59;4.60;99.90
26342;DHT22;14054;50.108;8.640;2022-12-08T10:37:25;4.50;99.90
26342;DHT22;14054;50.108;8.640;2022-12-08T10:40:19;4.60;99.90
26342;DHT22;14054;50.108;8.640;2022-12-08T10:42:49;4.70;99.90
26342;DHT22;14054;50.108;8.640;2022-12-08T10:45:28;4.90;99.90
26342;DHT22;14054;50.108;8.640;2022-12-08T10:48:03;4.90;99.90
26342;DHT22;14054;50.108;8.640;2022-12-08T10:50:35;5.00;99.90
26342;DHT22;14054;50.108;8.640;2022-12-08T10:55:52;5.10;99.90
26342;DHT22;14054;50.108;8.640;2022-12-08T10:58:28;5.10;99.90
26342;DHT22;14054;50.108;8.640;2022-12-08T11:01:04;5.10;99.90
26342;DHT22;14054;50.108;8.640;2022-12-08T11:03:33;5.30;99.90
26342;DHT22;14054;50.108;8.640;2022-12-08T11:06:00;6.30;99.90
26342;DHT22;14054;50.108;8.640;2022-12-08T11:08:27;6.60;99.90
26342;DHT22;14054;50.108;8.640;2022-12-08T11:10:53;6.50;99.90
26342;DHT22;14054;50.108;8.640;2022-12-08T11:13:23;6.40;99.90
26342;DHT22;14054;50.108;8.640;2022-12-08T11:15:49;5.90;99.90
26342;DHT22;14054;50.108;8.640;2022-12-08T11:18:37;5.70;99.90
26342;DHT22;14054;50.108;8.640;2022-12-08T11:21:10;5.50;99.90
26342;DHT22;14054;50.108;8.640;2022-12-08T11:23:37;5.50;99.90
26342;DHT22;14054;50.108;8.640;2022-12-08T11:26:20;5.40;99.90
26342;DHT22;14054;50.108;8.640;2022-12-08T11:28:47;5.40;99.90
26342;DHT22;14054;50.108;8.640;2022-12-08T11:31:34;5.40;99.90
26342;DHT22;14054;50.108;8.640;2022-12-08T11:34:05;5.30;99.90
26342;DHT22;14054;50.108;8.640;2022-12-08T11:36:34;5.20;99.90
26342;DHT22;14054;50.108;8.640;2022-12-08T11:39:02;5.40;99.90
26342;DHT22;14054;50.108;8.640;2022-12-08T11:41:33;5.20;99.90
26342;DHT22;14054;50.108;8.640;2022-12-08T11:44:21;5.10;99.90
26342;DHT22;14054;50.108;8.640;2022-12-08T11:46:57;5.00;99.90
26342;DHT22;14054;50.108;8.640;2022-12-08T11:49:35;5.10;99.90
26342;DHT22;14054;50.108;8.640;2022-12-08T11:52:21;5.20;99.90
26342;DHT22;14054;50.108;8.640;2022-12-08T11:54:58;5.40;99.90
26342;DHT22;14054;50.108;8.640;2022-12-08T11:57:25;5.90;99.90
26342;DHT22;14054;50.108;8.640;2022-12-08T11:59:55;5.90;99.90
26342;DHT22;14054;50.108;8.640;2022-12-08T12:02:25;5.90;99.90
26342;DHT22;14054;50.108;8.640;2022-12-08T12:05:06;5.90;99.90
26342;DHT22;14054;50.108;8.640;2022-12-08T12:07:50;5.70;99.90
26342;DHT22;14054;50.108;8.640;2022-12-08T12:10:35;5.50;99.90
26342;DHT22;14054;50.108;8.640;2022-12-08T12:13:28;5.50;99.90
26342;DHT22;14054;50.108;8.640;2022-12-08T12:16:18;5.40;99.90
26342;DHT22;14054;50.108;8.640;2022-12-08T12:18:53;5.60;99.90
26342;DHT22;14054;50.108;8.640;2022-12-08T12:21:26;5.60;99.90
26342;DHT22;14054;50.108;8.640;2022-12-08T12:26:27;6.10;99.90
26342;DHT22;14054;50.108;8.640;2022-12-08T12:29:03;6.30;99.90
26342;DHT22;14054;50.108;8.640;2022-12-08T12:31:33;6.10;99.90
26342;DHT22;14054;50.108;8.640;2022-12-08T12:34:34;6.00;99.90
26342;DHT22;14054;50.108;8.640;2022-12-08T12:37:04;6.00;99.90
26342;DHT22;14054;50.108;8.640;2022-12-08T12:39:34;5.80;99.90
26342;DHT22;14054;50.108;8.640;2022-12-08T12:42:42;5.50;99.90
26342;DHT22;14054;50.108;8.640;2022-12-08T12:47:47;5.60;99.90
26342;DHT22;14054;50.108;8.640;2022-12-08T12:53:01;5.60;99.90
26342;DHT22;14054;50.108;8.640;2022-12-08T12:55:49;5.90;99.90
26342;DHT22;14054;50.108;8.640;2022-12-08T12:58:33;6.00;99.90
26342;DHT22;14054;50.108;8.640;2022-12-08T13:03:35;7.10;99.90
26342;DHT22;14054;50.108;8.640;2022-12-08T13:06:02;6.70;99.90
26342;DHT22;14054;50.108;8.640;2022-12-08T13:08:28;6.50;99.90
26342;DHT22;14054;50.108;8.640;2022-12-08T13:11:00;6.30;99.90
26342;DHT22;14054;50.108;8.640;2022-12-08T13:13:27;6.10;99.90
26342;DHT22;14054;50.108;8.640;2022-12-08T13:16:04;6.10;99.90
26342;DHT22;14054;50.108;8.640;2022-12-08T13:18:45;6.00;99.90
26342;DHT22;14054;50.108;8.640;2022-12-08T13:21:17;5.90;99.90
26342;DHT22;14054;50.108;8.640;2022-12-08T13:23:49;5.80;99.90
26342;DHT22;14054;50.108;8.640;2022-12-08T13:26:21;5.80;99.90
26342;DHT22;14054;50.108;8.640;2022-12-08T13:31:45;5.70;99.90
26342;DHT22;14054;50.108;8.640;2022-12-08T13:34:33;5.80;99.90
26342;DHT22;14054;50.108;8.640;2022-12-08T13:42:22;5.60;99.90
26342;DHT22;14054;50.108;8.640;2022-12-08T13:45:12;5.50;99.90
26342;DHT22;14054;50.108;8.640;2022-12-08T13:52:42;5.70;99.90
26342;DHT22;14054;50.108;8.640;2022-12-08T13:55:22;5.80;99.90
26342;DHT22;14054;50.108;8.640;2022-12-08T13:57:50;6.00;99.90
26342;DHT22;14054;50.108;8.640;2022-12-08T14:00:18;5.90;99.90
26342;DHT22;14054;50.108;8.640;2022-12-08T14:02:46;5.80;99.90
26342;DHT22;14054;50.108;8.640;2022-12-08T14:05:12;5.80;99.90
26342;DHT22;14054;50.108;8.640;2022-12-08T14:07:40;5.80;99.90
26342;DHT22;14054;50.108;8.640;2022-12-08T14:10:09;5.70;99.90
26342;DHT22;14054;50.108;8.640;2022-12-08T14:12:38;5.50;99.90
26342;DHT22;14054;50.108;8.640;2022-12-08T14:15:06;5.50;99.90
26342;DHT22;14054;50.108;8.640;2022-12-08T14:17:32;5.40;99.90
26342;DHT22;14054;50.108;8.640;2022-12-08T14:22:32;5.40;99.90
26342;DHT22;14054;50.108;8.640;2022-12-08T14:24:58;5.40;99.90
26342;DHT22;14054;50.108;8.640;2022-12-08T14:27:26;5.40;99.90
26342;DHT22;14054;50.108;8.640;2022-12-08T14:30:00;5.40;99.90
26342;DHT22;14054;50.108;8.640;2022-12-08T14:32:37;5.40;99.90
26342;DHT22;14054;50.108;8.640;2022-12-08T14:37:34;5.40;99.90
26342;DHT22;14054;50.108;8.640;2022-12-08T14:40:04;5.40;99.90
26342;DHT22;14054;50.108;8.640;2022-12-08T14:42:30;5.40;99.90
26342;DHT22;14054;50.108;8.640;2022-12-08T14:44:59;5.40;99.90
26342;DHT22;14054;50.108;8.640;2022-12-08T14:47:33;5.40;99.90
26342;DHT22;14054;50.108;8.640;2022-12-08T14:50:00;5.40;99.90
26342;DHT22;14054;50.108;8.640;2022-12-08T14:52:26;5.30;99.90
26342;DHT22;14054;50.108;8.640;2022-12-08T14:54:52;5.30;99.90
26342;DHT22;14054;50.108;8.640;2022-12-08T14:57:19;5.30;99.90
26342;DHT22;14054;50.108;8.640;2022-12-08T14:59:45;5.30;99.90
26342;DHT22;14054;50.108;8.640;2022-12-08T15:02:22;5.30;99.90
26342;DHT22;14054;50.108;8.640;2022-12-08T15:05:09;5.30;99.90
26342;DHT22;14054;50.108;8.640;2022-12-08T15:07:49;5.20;99.90
26342;DHT22;14054;50.108;8.640;2022-12-08T15:15:25;5.10;99.90
26342;DHT22;14054;50.108;8.640;2022-12-08T15:17:59;5.10;99.90
26342;DHT22;14054;50.108;8.640;2022-12-08T15:23:03;5.10;99.90
26342;DHT22;14054;50.108;8.640;2022-12-08T15:25:30;5.10;99.90
26342;DHT22;14054;50.108;8.640;2022-12-08T15:27:57;5.10;99.90
26342;DHT22;14054;50.108;8.640;2022-12-08T15:30:23;5.10;99.90
26342;DHT22;14054;50.108;8.640;2022-12-08T15:32:51;5.00;99.90
26342;DHT22;14054;50.108;8.640;2022-12-08T15:35:17;5.00;99.90
26342;DHT22;14054;50.108;8.640;2022-12-08T15:37:42;5.00;99.90
26342;DHT22;14054;50.108;8.640;2022-12-08T15:40:17;5.00;99.90
26342;DHT22;14054;50.108;8.640;2022-12-08T15:42:43;5.00;99.90
26342;DHT22;14054;50.108;8.640;2022-12-08T15:45:15;5.00;99.90
26342;DHT22;14054;50.108;8.640;2022-12-08T15:47:41;5.00;99.90
26342;DHT22;14054;50.108;8.640;2022-12-08T15:50:19;5.00;99.90
26342;DHT22;14054;50.108;8.640;2022-12-08T15:52:45;5.00;99.90
26342;DHT22;14054;50.108;8.640;2022-12-08T15:55:15;4.90;99.90
26342;DHT22;14054;50.108;8.640;2022-12-08T15:57:43;4.90;99.90
26342;DHT22;14054;50.108;8.640;2022-12-08T16:00:39;4.90;99.90
26342;DHT22;14054;50.108;8.640;2022-12-08T16:03:05;4.80;99.90
26342;DHT22;14054;50.108;8.640;2022-12-08T16:05:30;4.70;99.90
26342;DHT22;14054;50.108;8.640;2022-12-08T16:07:56;4.70;99.90
26342;DHT22;14054;50.108;8.640;2022-12-08T16:10:26;4.70;99.90
26342;DHT22;14054;50.108;8.640;2022-12-08T16:12:52;4.60;99.90
26342;DHT22;14054;50.108;8.640;2022-12-08T16:15:41;4.60;99.90
26342;DHT22;14054;50.108;8.640;2022-12-08T16:18:14;4.50;99.90
26342;DHT22;14054;50.108;8.640;2022-12-08T16:20:41;4.50;99.90
26342;DHT22;14054;50.108;8.640;2022-12-08T16:23:07;4.50;99.90
26342;DHT22;14054;50.108;8.640;2022-12-08T16:25:32;4.50;99.90
26342;DHT22;14054;50.108;8.640;2022-12-08T16:27:58;4.50;99.90
26342;DHT22;14054;50.108;8.640;2022-12-08T16:30:23;4.50;99.90
26342;DHT22;14054;50.108;8.640;2022-12-08T16:32:49;4.50;99.90
26342;DHT22;14054;50.108;8.640;2022-12-08T16:35:15;4.40;99.90
26342;DHT22;14054;50.108;8.640;2022-12-08T16:37:41;4.50;99.90
26342;DHT22;14054;50.108;8.640;2022-12-08T16:40:07;4.40;99.90
26342;DHT22;14054;50.108;8.640;2022-12-08T16:42:33;4.50;99.90
26342;DHT22;14054;50.108;8.640;2022-12-08T16:45:21;4.40;99.90
26342;DHT22;14054;50.108;8.640;2022-12-08T16:47:50;4.40;99.90
26342;DHT22;14054;50.108;8.640;2022-12-08T16:50:20;4.40;99.90
26342;DHT22;14054;50.108;8.640;2022-12-08T16:52:47;4.40;99.90
26342;DHT22;14054;50.108;8.640;2022-12-08T16:55:16;4.50;99.90
26342;DHT22;14054;50.108;8.640;2022-12-08T16:57:42;4.50;99.90
26342;DHT22;14054;50.108;8.640;2022-12-08T17:00:19;4.40;99.90
26342;DHT22;14054;50.108;8.640;2022-12-08T17:02:45;4.40;99.90
26342;DHT22;14054;50.108;8.640;2022-12-08T17:05:12;4.40;99.90